createdAt,value
2018-10-16T00:01:17.280Z,15.07
2018-10-16T00:03:45.937Z,16.27
2018-10-16T00:06:14.635Z,16.00
2018-10-16T00:08:43.290Z,14.97
2018-10-16T00:11:12.016Z,15.13
2018-10-16T00:13:40.695Z,15.10
2018-10-16T00:16:09.546Z,17.10
2018-10-16T00:18:38.227Z,15.93
2018-10-16T00:21:07.054Z,14.20
2018-10-16T00:23:35.731Z,15.63
2018-10-16T00:26:04.442Z,15.77
2018-10-16T00:28:33.098Z,15.63
2018-10-16T00:31:01.765Z,15.57
2018-10-16T00:33:30.421Z,15.97
2018-10-16T00:35:59.106Z,15.67
2018-10-16T00:38:27.783Z,15.43
2018-10-16T00:40:56.474Z,16.17
2018-10-16T00:43:25.115Z,16.63
2018-10-16T00:45:53.809Z,15.20
2018-10-16T00:48:22.444Z,14.23
2018-10-16T00:50:51.130Z,16.30
2018-10-16T00:53:19.800Z,15.07
2018-10-16T00:55:48.485Z,15.27
2018-10-16T00:58:17.187Z,14.63
2018-10-16T01:00:45.885Z,14.77
2018-10-16T01:03:14.579Z,14.77
2018-10-16T01:05:43.315Z,14.90
2018-10-16T01:08:12.011Z,14.43
2018-10-16T01:10:40.694Z,16.53
2018-10-16T01:13:09.431Z,15.20
2018-10-16T01:15:38.099Z,14.90
2018-10-16T01:18:06.818Z,14.93
2018-10-16T01:20:35.660Z,14.47
2018-10-16T01:23:04.373Z,14.30
2018-10-16T01:25:33.061Z,14.37
2018-10-16T01:28:01.820Z,14.73
2018-10-16T01:30:30.536Z,14.93
2018-10-16T01:32:59.189Z,15.57
2018-10-16T01:35:27.898Z,15.20
2018-10-16T01:37:56.657Z,14.33
2018-10-16T01:40:25.412Z,15.37
2018-10-16T01:42:54.167Z,15.30
2018-10-16T01:45:22.857Z,14.10
2018-10-16T01:47:51.823Z,14.53
2018-10-16T01:50:20.584Z,13.97
2018-10-16T01:52:49.610Z,13.77
2018-10-16T01:55:18.278Z,15.57
2018-10-16T01:57:47.305Z,15.30
2018-10-16T02:00:16.072Z,14.20
2018-10-16T02:02:44.758Z,16.07
2018-10-16T02:05:13.448Z,14.10
2018-10-16T02:07:42.208Z,15.57
2018-10-16T02:10:10.922Z,14.60
2018-10-16T02:12:39.572Z,15.70
2018-10-16T02:15:09.111Z,17.07
2018-10-16T02:17:38.581Z,15.17
2018-10-16T02:20:07.738Z,14.90
2018-10-16T02:22:36.439Z,14.63
2018-10-16T02:25:05.254Z,14.53
2018-10-16T02:27:33.913Z,16.10
2018-10-16T02:30:02.623Z,16.60
2018-10-16T02:32:31.287Z,15.53
2018-10-16T02:34:59.980Z,16.20
2018-10-16T02:37:28.662Z,15.83
2018-10-16T02:39:57.334Z,16.23
2018-10-16T02:42:26.001Z,16.47
2018-10-16T02:44:54.691Z,16.00
2018-10-16T02:47:23.361Z,14.33
2018-10-16T02:49:52.042Z,14.97
2018-10-16T02:52:20.695Z,16.27
2018-10-16T02:54:49.409Z,14.93
2018-10-16T02:57:18.057Z,15.40
2018-10-16T02:59:46.731Z,15.13
2018-10-16T03:02:15.389Z,15.10
2018-10-16T03:04:44.074Z,16.37
2018-10-16T03:07:12.770Z,15.37
2018-10-16T03:09:41.431Z,16.63
2018-10-16T03:12:10.117Z,15.60
2018-10-16T03:14:38.801Z,15.33
2018-10-16T03:17:07.610Z,17.37
2018-10-16T03:19:36.346Z,15.13
2018-10-16T03:22:05.066Z,15.57
2018-10-16T03:24:33.758Z,16.00
2018-10-16T03:27:02.462Z,15.43
2018-10-16T03:29:31.151Z,15.50
2018-10-16T03:31:59.816Z,16.73
2018-10-16T03:34:28.510Z,16.00
2018-10-16T03:36:57.254Z,15.80
2018-10-16T03:39:25.970Z,14.80
2018-10-16T03:41:54.634Z,15.50
2018-10-16T03:44:23.310Z,15.87
2018-10-16T03:46:51.977Z,15.50
2018-10-16T03:49:20.662Z,14.67
2018-10-16T03:51:49.372Z,16.17
2018-10-16T03:54:18.136Z,15.70
2018-10-16T03:56:47.152Z,15.13
2018-10-16T03:59:15.979Z,15.80
2018-10-16T04:01:44.695Z,14.97
2018-10-16T04:04:13.433Z,16.30
2018-10-16T04:06:42.112Z,18.60
2018-10-16T04:09:10.792Z,16.37
2018-10-16T04:11:46.254Z,16.53
2018-10-16T04:14:14.959Z,16.43
2018-10-16T04:16:43.635Z,16.13
2018-10-16T04:19:12.589Z,16.43
2018-10-16T04:21:45.807Z,16.23
2018-10-16T04:24:14.852Z,16.37
2018-10-16T04:26:43.542Z,16.23
2018-10-16T04:29:12.697Z,15.90
2018-10-16T04:31:41.350Z,17.93
2018-10-16T04:34:10.558Z,18.87
2018-10-16T04:36:39.259Z,18.03
2018-10-16T04:39:10.366Z,16.80
2018-10-16T04:41:39.127Z,17.87
2018-10-16T04:44:07.816Z,17.93
2018-10-16T04:46:36.465Z,17.27
2018-10-16T04:49:05.451Z,16.60
2018-10-16T04:51:34.114Z,17.40
2018-10-16T04:54:02.830Z,18.10
2018-10-16T04:56:31.714Z,18.43
2018-10-16T04:59:00.565Z,18.23
2018-10-16T05:01:29.280Z,16.67
2018-10-16T05:03:58.690Z,18.17
2018-10-16T05:06:27.546Z,16.93
2018-10-16T05:08:56.306Z,19.17
2018-10-16T05:11:25.096Z,17.67
2018-10-16T05:13:53.873Z,15.73
2018-10-16T05:16:22.582Z,17.03
2018-10-16T05:18:51.401Z,17.93
2018-10-16T05:21:20.122Z,17.73
2018-10-16T05:23:48.956Z,17.97
2018-10-16T05:26:17.656Z,18.87
2018-10-16T05:28:46.386Z,17.63
2018-10-16T05:31:15.190Z,20.33
2018-10-16T05:33:43.875Z,18.63
2018-10-16T05:36:12.591Z,17.90
2018-10-16T05:38:41.331Z,18.87
2018-10-16T05:41:10.033Z,19.23
2018-10-16T05:43:38.830Z,16.63
2018-10-16T05:46:07.606Z,16.67
2018-10-16T05:48:36.319Z,15.40
2018-10-16T05:51:05.083Z,16.63
2018-10-16T05:53:33.815Z,17.27
2018-10-16T05:56:04.412Z,19.07
2018-10-16T05:58:33.518Z,17.03
2018-10-16T06:01:02.528Z,18.70
2018-10-16T06:03:31.255Z,17.93
2018-10-16T06:05:59.909Z,23.67
2018-10-16T06:08:28.668Z,18.83
2018-10-16T06:10:57.376Z,19.67
2018-10-16T06:13:26.320Z,21.23
2018-10-16T06:15:55.078Z,16.73
2018-10-16T06:18:23.751Z,17.30
2018-10-16T06:20:52.427Z,17.70
2018-10-16T06:23:21.175Z,17.27
2018-10-16T06:25:49.898Z,15.70
2018-10-16T06:28:21.536Z,16.43
2018-10-16T06:30:50.302Z,17.40
2018-10-16T06:33:20.996Z,20.57
2018-10-16T06:35:49.778Z,15.70
2018-10-16T06:38:18.536Z,16.47
2018-10-16T06:40:47.396Z,21.37
2018-10-16T06:43:16.101Z,15.37
2018-10-16T06:45:45.010Z,16.13
2018-10-16T06:48:20.311Z,22.53
2018-10-16T06:50:48.885Z,18.87
2018-10-16T06:53:17.589Z,16.13
2018-10-16T06:55:46.364Z,16.40
2018-10-16T06:58:15.011Z,17.03
2018-10-16T07:00:43.679Z,16.67
2018-10-16T07:03:12.397Z,18.57
2018-10-16T07:05:41.055Z,16.53
2018-10-16T07:08:09.790Z,15.57
2018-10-16T07:10:38.462Z,20.27
2018-10-16T07:13:07.137Z,20.37
2018-10-16T07:15:35.820Z,16.83
2018-10-16T07:18:04.726Z,15.50
2018-10-16T07:20:33.387Z,16.90
2018-10-16T07:23:02.320Z,16.97
2018-10-16T07:25:30.974Z,16.93
2018-10-16T07:27:59.687Z,15.80
2018-10-16T07:30:29.687Z,15.50
2018-10-16T07:32:59.424Z,16.60
2018-10-16T07:35:31.113Z,17.10
2018-10-16T07:37:59.847Z,15.57
2018-10-16T07:40:28.490Z,16.40
2018-10-16T07:42:57.138Z,16.70
2018-10-16T07:45:25.845Z,15.90
2018-10-16T07:47:54.495Z,15.60
2018-10-16T07:50:23.214Z,16.57
2018-10-16T07:52:51.880Z,16.33
2018-10-16T07:55:20.571Z,20.33
2018-10-16T07:57:49.330Z,16.93
2018-10-16T08:00:18.085Z,16.77
2018-10-16T08:02:46.942Z,17.13
2018-10-16T08:05:15.626Z,16.93
2018-10-16T08:07:44.442Z,16.30
2018-10-16T08:10:14.082Z,16.03
2018-10-16T08:12:43.587Z,18.47
2018-10-16T08:15:12.537Z,16.17
2018-10-16T08:17:41.693Z,16.27
2018-10-16T08:20:10.424Z,16.83
2018-10-16T08:22:39.463Z,15.33
2018-10-16T08:25:37.838Z,16.27
2018-10-16T08:28:24.651Z,16.27
2018-10-16T08:31:08.403Z,16.13
2018-10-16T08:34:00.806Z,16.83
2018-10-16T08:36:29.946Z,18.70
2018-10-16T08:39:17.187Z,15.60
2018-10-16T08:43:04.274Z,16.57
2018-10-16T08:47:51.014Z,16.27
2018-10-16T08:50:31.399Z,18.73
2018-10-16T08:53:00.076Z,16.13
2018-10-16T08:55:28.762Z,15.37
2018-10-16T08:57:57.418Z,20.47
2018-10-16T09:00:26.146Z,14.83
2018-10-16T09:02:54.909Z,14.33
2018-10-16T09:05:23.644Z,16.20
2018-10-16T09:07:52.328Z,18.03
2018-10-16T09:10:21.034Z,19.80
2018-10-16T09:12:49.710Z,15.93
2018-10-16T09:15:18.494Z,16.27
2018-10-16T09:17:47.174Z,15.97
2018-10-16T09:20:15.874Z,21.27
2018-10-16T09:22:44.536Z,16.87
2018-10-16T09:25:13.325Z,22.47
2018-10-16T09:27:41.979Z,20.67
2018-10-16T09:30:13.017Z,20.43
2018-10-16T09:32:41.910Z,18.93
2018-10-16T09:35:11.778Z,22.43
2018-10-16T09:37:40.514Z,16.97
2018-10-16T09:40:11.430Z,23.77
2018-10-16T09:42:40.146Z,20.27
2018-10-16T09:45:10.083Z,17.43
2018-10-16T09:47:38.851Z,21.03
2018-10-16T09:50:08.443Z,17.77
2018-10-16T09:52:37.130Z,20.90
2018-10-16T09:55:07.231Z,17.17
2018-10-16T09:57:35.949Z,18.47
2018-10-16T10:00:07.780Z,22.63
2018-10-16T10:02:43.052Z,16.83
2018-10-16T10:05:11.786Z,19.60
2018-10-16T10:07:40.602Z,20.77
2018-10-16T10:10:09.515Z,17.57
2018-10-16T10:12:38.300Z,14.50
2018-10-16T10:15:07.123Z,14.53
2018-10-16T10:17:36.127Z,20.30
2018-10-16T10:20:05.112Z,17.47
2018-10-16T10:22:33.778Z,19.50
2018-10-16T10:25:02.626Z,17.47
2018-10-16T10:27:31.663Z,19.03
2018-10-16T10:30:00.361Z,17.27
2018-10-16T10:32:29.267Z,16.20
2018-10-16T10:34:57.958Z,15.80
2018-10-16T10:37:26.641Z,16.73
2018-10-16T10:39:55.357Z,16.23
2018-10-16T10:42:24.033Z,14.50
2018-10-16T10:44:52.722Z,14.53
2018-10-16T10:47:21.416Z,12.93
2018-10-16T10:49:50.168Z,14.53
2018-10-16T10:52:19.156Z,14.00
2018-10-16T10:54:47.874Z,13.10
2018-10-16T10:57:16.600Z,13.17
2018-10-16T10:59:45.261Z,13.23
2018-10-16T11:02:13.978Z,11.70
2018-10-16T11:04:42.678Z,12.93
2018-10-16T11:07:11.407Z,13.47
2018-10-16T11:09:40.113Z,12.43
2018-10-16T11:12:08.791Z,10.97
2018-10-16T11:14:37.499Z,11.30
2018-10-16T11:17:06.257Z,12.30
2018-10-16T11:19:34.976Z,13.23
2018-10-16T11:22:03.777Z,11.57
2018-10-16T11:24:32.474Z,12.93
2018-10-16T11:27:01.200Z,11.43
2018-10-16T11:29:29.851Z,11.40
2018-10-16T11:31:58.502Z,10.40
2018-10-16T11:34:27.204Z,9.87
2018-10-16T11:36:55.889Z,10.40
2018-10-16T11:39:24.595Z,11.07
2018-10-16T11:41:53.278Z,10.90
2018-10-16T11:44:22.011Z,11.30
2018-10-16T11:46:50.687Z,9.50
2018-10-16T11:49:19.391Z,14.60
2018-10-16T11:51:48.066Z,15.03
2018-10-16T11:54:16.750Z,9.53
2018-10-16T11:56:45.413Z,9.97
2018-10-16T11:59:14.125Z,9.07
2018-10-16T12:01:42.807Z,9.40
2018-10-16T12:04:11.495Z,10.00
2018-10-16T12:06:40.210Z,10.27
2018-10-16T12:09:10.006Z,10.43
2018-10-16T12:11:39.275Z,8.40
2018-10-16T12:14:08.626Z,11.17
2018-10-16T12:16:48.419Z,9.10
2018-10-16T12:19:20.948Z,9.80
2018-10-16T12:21:49.627Z,9.37
2018-10-16T12:24:18.306Z,10.07
2018-10-16T12:26:46.984Z,9.43
2018-10-16T12:29:15.674Z,10.23
2018-10-16T12:31:44.334Z,11.20
2018-10-16T12:34:13.014Z,9.43
2018-10-16T12:36:41.710Z,11.23
2018-10-16T12:39:10.807Z,8.50
2018-10-16T12:41:39.434Z,9.43
2018-10-16T12:44:08.108Z,9.60
2018-10-16T12:46:36.793Z,9.43
2018-10-16T12:49:05.693Z,9.00
2018-10-16T12:51:34.370Z,8.93
2018-10-16T12:54:03.108Z,10.60
2018-10-16T12:56:31.782Z,12.93
2018-10-16T12:59:00.504Z,8.07
2018-10-16T13:01:29.164Z,9.00
2018-10-16T13:03:57.832Z,9.57
2018-10-16T13:06:26.524Z,10.13
2018-10-16T13:08:55.211Z,8.97
2018-10-16T13:11:23.922Z,8.87
2018-10-16T13:13:52.694Z,8.27
2018-10-16T13:16:21.338Z,8.87
2018-10-16T13:18:49.984Z,9.10
2018-10-16T13:21:18.666Z,8.03
2018-10-16T13:23:47.360Z,8.70
2018-10-16T13:26:16.035Z,7.27
2018-10-16T13:28:44.692Z,7.30
2018-10-16T13:31:13.379Z,8.13
2018-10-16T13:33:42.034Z,8.60
2018-10-16T13:36:10.760Z,6.77
2018-10-16T13:38:39.419Z,7.60
2018-10-16T13:41:08.119Z,7.57
2018-10-16T13:43:36.788Z,8.80
2018-10-16T13:46:05.716Z,8.37
2018-10-16T13:48:34.395Z,8.63
2018-10-16T13:51:03.103Z,8.10
2018-10-16T13:53:31.763Z,8.47
2018-10-16T13:56:00.537Z,8.37
2018-10-16T13:58:29.170Z,8.40
2018-10-16T14:00:57.864Z,8.77
2018-10-16T14:03:26.638Z,9.33
2018-10-16T14:05:55.315Z,11.63
2018-10-16T14:08:23.972Z,8.70
2018-10-16T14:10:52.658Z,7.70
2018-10-16T14:13:21.366Z,7.90
2018-10-16T14:15:50.080Z,8.97
2018-10-16T14:18:18.748Z,12.30
2018-10-16T14:20:47.432Z,8.10
2018-10-16T14:23:16.147Z,7.43
2018-10-16T14:25:44.846Z,7.60
2018-10-16T14:28:13.622Z,7.00
2018-10-16T14:30:42.226Z,8.20
2018-10-16T14:33:11.356Z,7.83
2018-10-16T14:35:40.078Z,10.43
2018-10-16T14:38:08.804Z,7.53
2018-10-16T14:40:37.608Z,8.07
2018-10-16T14:43:06.154Z,7.63
2018-10-16T14:45:34.824Z,8.37
2018-10-16T14:48:04.317Z,9.03
2018-10-16T14:50:32.994Z,8.77
2018-10-16T14:53:01.774Z,8.87
2018-10-16T14:55:30.473Z,11.30
2018-10-16T14:57:59.162Z,9.13
2018-10-16T15:00:27.842Z,8.20
2018-10-16T15:02:56.501Z,8.47
2018-10-16T15:05:25.217Z,7.70
2018-10-16T15:07:53.919Z,7.87
2018-10-16T15:10:22.587Z,7.80
2018-10-16T15:12:51.284Z,9.30
2018-10-16T15:15:19.946Z,8.20
2018-10-16T15:17:48.609Z,8.40
2018-10-16T15:20:17.340Z,9.97
2018-10-16T15:22:45.972Z,8.67
2018-10-16T15:25:14.667Z,8.43
2018-10-16T15:27:43.323Z,9.23
2018-10-16T15:30:12.007Z,8.60
2018-10-16T15:32:40.663Z,9.50
2018-10-16T15:35:10.547Z,9.03
2018-10-16T15:37:39.593Z,14.97
2018-10-16T15:40:09.737Z,11.40
2018-10-16T15:42:38.302Z,8.27
2018-10-16T15:45:08.690Z,10.10
2018-10-16T15:47:37.462Z,9.40
2018-10-16T15:50:07.164Z,9.67
2018-10-16T15:52:35.794Z,9.77
2018-10-16T15:55:04.712Z,10.17
2018-10-16T15:57:33.434Z,10.17
2018-10-16T16:00:02.700Z,13.97
2018-10-16T16:02:31.392Z,10.23
2018-10-16T16:05:00.023Z,9.33
2018-10-16T16:07:28.675Z,12.40
2018-10-16T16:09:57.412Z,8.97
2018-10-16T16:12:26.106Z,9.57
2018-10-16T16:14:54.822Z,8.53
2018-10-16T16:17:23.517Z,8.43
2018-10-16T16:19:52.263Z,8.40
2018-10-16T16:22:20.894Z,9.73
2018-10-16T16:24:49.565Z,9.17
2018-10-16T16:27:18.214Z,8.50
2018-10-16T16:29:46.920Z,11.97
2018-10-16T16:32:15.592Z,8.40
2018-10-16T16:34:44.291Z,8.70
2018-10-16T16:37:12.957Z,11.23
2018-10-16T16:39:41.658Z,12.27
2018-10-16T16:42:10.386Z,13.00
2018-10-16T16:44:39.033Z,14.50
2018-10-16T16:47:07.773Z,12.77
2018-10-16T16:49:36.442Z,10.37
2018-10-16T16:52:05.482Z,16.13
2018-10-16T16:54:34.196Z,16.00
2018-10-16T16:57:03.660Z,14.80
2018-10-16T16:59:32.354Z,14.97
2018-10-16T17:02:01.767Z,14.43
2018-10-16T17:04:30.526Z,15.37
2018-10-16T17:06:59.698Z,13.87
2018-10-16T17:09:28.486Z,10.87
2018-10-16T17:12:18.512Z,12.83
2018-10-16T17:15:00.166Z,16.33
2018-10-16T17:17:34.500Z,10.87
2018-10-16T17:20:03.189Z,16.07
2018-10-16T17:22:31.930Z,13.33
2018-10-16T17:25:00.661Z,16.63
2018-10-16T17:27:29.324Z,14.13
2018-10-16T17:29:57.991Z,14.13
2018-10-16T17:32:26.692Z,14.50
2018-10-16T17:34:55.386Z,16.13
2018-10-16T17:37:24.933Z,14.60
2018-10-16T17:39:53.680Z,47.80
2018-10-16T17:42:22.497Z,15.73
2018-10-16T17:44:51.310Z,15.10
2018-10-16T17:47:20.201Z,15.93
2018-10-16T17:49:48.881Z,16.13
2018-10-16T17:52:17.678Z,14.13
2018-10-16T17:54:46.343Z,16.67
2018-10-16T17:57:15.050Z,15.47
2018-10-16T17:59:43.717Z,14.27
2018-10-16T18:02:12.423Z,15.67
2018-10-16T18:04:41.204Z,14.20
2018-10-16T18:07:09.925Z,14.43
2018-10-16T18:09:38.782Z,13.90
2018-10-16T18:12:07.616Z,12.87
2018-10-16T18:14:36.431Z,13.00
2018-10-16T18:17:05.274Z,13.23
2018-10-16T18:19:33.956Z,14.20
2018-10-16T18:22:04.053Z,14.43
2018-10-16T18:24:32.758Z,13.30
2018-10-16T18:27:01.970Z,14.47
2018-10-16T18:29:30.678Z,14.17
2018-10-16T18:31:59.340Z,13.70
2018-10-16T18:34:28.058Z,13.70
2018-10-16T18:36:56.751Z,13.67
2018-10-16T18:39:25.634Z,14.00
2018-10-16T18:41:54.243Z,13.07
2018-10-16T18:44:23.021Z,16.40
2018-10-16T18:46:51.690Z,15.77
2018-10-16T18:49:22.325Z,17.23
2018-10-16T18:51:50.994Z,16.77
2018-10-16T18:54:19.683Z,16.50
2018-10-16T18:56:48.377Z,14.37
2018-10-16T18:59:17.034Z,14.77
2018-10-16T19:01:45.738Z,13.83
2018-10-16T19:04:14.410Z,16.63
2018-10-16T19:06:43.106Z,14.80
2018-10-16T19:09:12.950Z,14.27
2018-10-16T19:11:42.267Z,15.07
2018-10-16T19:14:10.946Z,15.97
2018-10-16T19:16:40.168Z,14.50
2018-10-16T19:19:08.858Z,15.13
2018-10-16T19:21:37.551Z,16.90
2018-10-16T19:24:06.579Z,16.67
2018-10-16T19:26:35.256Z,16.37
2018-10-16T19:29:03.948Z,15.80
2018-10-16T19:31:32.672Z,16.67
2018-10-16T19:34:01.351Z,18.00
2018-10-16T19:36:30.326Z,18.00
2018-10-16T19:38:58.943Z,20.30
2018-10-16T19:41:27.640Z,17.30
2018-10-16T19:43:56.308Z,18.00
2018-10-16T19:46:24.995Z,18.90
2018-10-16T19:48:53.654Z,17.90
2018-10-16T19:51:22.330Z,18.90
2018-10-16T19:53:51.009Z,18.30
2018-10-16T19:56:19.690Z,16.87
2018-10-16T19:58:48.332Z,18.50
2018-10-16T20:01:17.094Z,16.67
2018-10-16T20:03:45.753Z,17.27
2018-10-16T20:06:14.488Z,18.80
2018-10-16T20:08:43.181Z,18.37
2018-10-16T20:11:11.866Z,17.47
2018-10-16T20:13:40.526Z,18.10
2018-10-16T20:16:09.239Z,16.97
2018-10-16T20:18:37.883Z,26.13
2018-10-16T20:21:06.718Z,18.87
2018-10-16T20:23:35.369Z,17.80
2018-10-16T20:26:04.155Z,18.57
2018-10-16T20:28:32.812Z,19.20
2018-10-16T20:31:01.554Z,22.73
2018-10-16T20:33:30.179Z,23.30
2018-10-16T20:35:58.863Z,24.23
2018-10-16T20:38:27.612Z,22.03
2018-10-16T20:40:56.313Z,23.07
2018-10-16T20:43:24.962Z,22.30
2018-10-16T20:45:53.655Z,19.73
2018-10-16T20:48:22.311Z,19.23
2018-10-16T20:50:57.575Z,21.07
2018-10-16T20:53:26.222Z,18.93
2018-10-16T20:55:54.904Z,18.30
2018-10-16T20:58:23.558Z,20.13
2018-10-16T21:00:52.811Z,19.40
2018-10-16T21:03:21.494Z,18.73
2018-10-16T21:05:50.219Z,17.67
2018-10-16T21:08:18.891Z,18.60
2018-10-16T21:10:47.646Z,18.27
2018-10-16T21:13:16.373Z,19.33
2018-10-16T21:15:45.016Z,19.30
2018-10-16T21:18:13.703Z,20.07
2018-10-16T21:20:42.400Z,20.27
2018-10-16T21:23:11.100Z,18.43
2018-10-16T21:25:39.779Z,17.87
2018-10-16T21:28:08.431Z,18.67
2018-10-16T21:30:37.102Z,18.47
2018-10-16T21:33:06.128Z,19.67
2018-10-16T21:35:34.844Z,20.70
2018-10-16T21:38:04.324Z,19.43
2018-10-16T21:40:33.007Z,19.30
2018-10-16T21:43:02.025Z,18.43
2018-10-16T21:45:30.723Z,17.57
2018-10-16T21:47:59.368Z,17.57
2018-10-16T21:50:28.046Z,20.40
2018-10-16T21:52:56.723Z,19.43
2018-10-16T21:55:25.397Z,20.23
2018-10-16T21:57:54.055Z,18.50
2018-10-16T22:00:27.927Z,18.07
2018-10-16T22:02:57.701Z,19.67
2018-10-16T22:05:32.867Z,24.23
2018-10-16T22:08:01.620Z,21.03
2018-10-16T22:10:30.277Z,22.93
2018-10-16T22:12:58.951Z,20.70
2018-10-16T22:15:27.646Z,18.47
2018-10-16T22:17:56.397Z,19.90
2018-10-16T22:20:25.080Z,19.37
2018-10-16T22:22:53.881Z,20.60
2018-10-16T22:25:22.554Z,18.90
2018-10-16T22:27:51.235Z,18.17
2018-10-16T22:30:19.912Z,18.80
2018-10-16T22:32:48.585Z,19.23
2018-10-16T22:35:17.361Z,19.47
2018-10-16T22:37:46.010Z,18.37
2018-10-16T22:40:14.689Z,19.60
2018-10-16T22:42:43.351Z,19.43
2018-10-16T22:45:12.037Z,18.63
2018-10-16T22:47:40.710Z,19.87
2018-10-16T22:50:11.710Z,19.00
2018-10-16T22:52:40.538Z,20.10
2018-10-16T22:55:09.933Z,18.37
2018-10-16T22:57:38.708Z,18.90
2018-10-16T23:00:13.919Z,18.20
2018-10-16T23:02:43.016Z,18.23
2018-10-16T23:05:11.745Z,19.30
2018-10-16T23:07:40.392Z,20.47
2018-10-16T23:10:09.103Z,18.37
2018-10-16T23:12:37.754Z,19.57
2018-10-16T23:15:07.719Z,19.03
2018-10-16T23:17:36.402Z,18.03
2018-10-16T23:20:05.831Z,18.93
2018-10-16T23:22:34.533Z,18.47
2018-10-16T23:25:03.224Z,18.13
2018-10-16T23:27:31.906Z,20.50
2018-10-16T23:30:00.572Z,17.83
2018-10-16T23:32:29.245Z,20.23
2018-10-16T23:34:58.049Z,19.83
2018-10-16T23:37:26.669Z,19.90
2018-10-16T23:39:55.341Z,18.13
2018-10-16T23:42:23.982Z,17.13
2018-10-16T23:44:52.674Z,19.20
2018-10-16T23:47:21.361Z,19.10
2018-10-16T23:49:50.050Z,18.10
2018-10-16T23:52:18.739Z,18.50
2018-10-16T23:54:47.403Z,18.87
2018-10-16T23:57:16.041Z,19.53
2018-10-16T23:59:44.709Z,19.00
